Terminal Aerodrome Forecast
Issued by NWS

Home | Current Version | Previous Version | Text Only | Print | Product List | Glossary On
Versions: 1 2 3 4 5 6 7 8 9 10 11 12 13 14 15 16 17
282
FTUS42 TJSJ 210520
TAFJBQ
TAF
TJBQ 210520Z 2106/2206 10010KT P6SM SKC
     FM211400 08015KT P6SM FEW025
     FM212300 10010KT P6SM SKC
      AMD NOT SKED TIL 211100=

USA.gov is the U.S. government's official web portal to all federal, state and local government web resources and services.